»·PEaware :: SWA268 KSFO-KSNA

SWA268 :: KSFO-KSNA

FLIGHT INFORMATION

Flight Status: Arrived
Operator:
Southwest Airlines
More flights by this operator :: More flights under this callsign
Pilot: Dane N. (4459)
Aircraft: BOEING 737-700
(B737)
More flights by this aircraft type
Origin: KSFO San Francisco Intl
United States
Destination: KSNA John Wayne-Orange Co
United States
More flights between these airports :: More routes between these airports
Route: +SSTIK2 CISKO FLW TANDY3
File this flight plan on PilotEdge
Remarks:
Altitude:
(Current/Filed)
31,000ft
Speed:
(Current/Filed)
420kts
Departed: 08-Jul-15 01:20 PM
Arrived: 08-Jul-15 02:25 PM
Distance/Time
Traveled:
323nm/1:05
Distance/Time
To Go:
Arrived

Flight Plot

Page will automatically refresh every two minutes.

Flight plan parsing failed; only flown route is shown


Map Options




Map Legend


Flown Route
Filed Route
Departure Airport
Arrival Airport
Navaid (VOR, NDB)
Fix

Horizontal Profiles

Position Reports

Time Latitude Longitude Heading Altitude Ground
Speed
08-Jul-15 12:57 37.613018 -122.382658 296 19ft 0kts
08-Jul-15 12:58 37.613018 -122.382658 296 20ft 0kts
08-Jul-15 12:59 37.613018 -122.382658 296 20ft 0kts
08-Jul-15 13:00 37.613018 -122.382658 296 20ft 0kts
08-Jul-15 13:01 37.613018 -122.382658 296 20ft 0kts
08-Jul-15 13:02 37.613018 -122.382658 296 20ft 0kts
08-Jul-15 13:03 37.613018 -122.382658 296 20ft 0kts
08-Jul-15 13:04 37.613018 -122.382658 296 20ft 0kts
08-Jul-15 13:05 37.613018 -122.382658 296 20ft 0kts
08-Jul-15 13:06 37.613018 -122.382658 296 20ft 0kts
08-Jul-15 13:07 37.613018 -122.382658 296 20ft 0kts
08-Jul-15 13:08 37.613018 -122.382658 296 20ft 0kts
08-Jul-15 13:09 37.613018 -122.382658 296 20ft 0kts
08-Jul-15 13:10 37.613018 -122.382658 296 20ft 0kts
08-Jul-15 13:11 37.613018 -122.382658 296 20ft 0kts
08-Jul-15 13:12 37.612836 -122.382196 297 20ft 1kts
08-Jul-15 13:13 37.612818 -122.381916 169 20ft 1kts
08-Jul-15 13:14 37.612992 -122.381912 207 20ft 0kts
08-Jul-15 13:15 37.612988 -122.381915 207 20ft 0kts
08-Jul-15 13:16 37.611455 -122.382917 195 20ft 11kts
08-Jul-15 13:17 37.609728 -122.382789 116 20ft 0kts
08-Jul-15 13:18 37.609542 -122.382355 118 20ft 9kts
08-Jul-15 13:19 37.616123 -122.377408 27 20ft 126kts
08-Jul-15 13:20 37.667948 -122.357189 351 1743ft 240kts
08-Jul-15 13:21 37.697327 -122.418739 239 3652ft 255kts
08-Jul-15 13:22 37.626270 -122.445451 187 5710ft 294kts
08-Jul-15 13:23 37.545415 -122.461799 189 7719ft 302kts
08-Jul-15 13:24 37.465176 -122.441919 140 9727ft 313kts
08-Jul-15 13:25 37.400863 -122.366911 136 11720ft 320kts
08-Jul-15 13:26 37.349558 -122.308015 138 14662ft 263kts
08-Jul-15 13:27 37.291524 -122.237463 136 17462ft 314kts
08-Jul-15 13:28 37.224150 -122.155281 135 19480ft 355kts
08-Jul-15 13:29 37.163925 -122.082800 136 21154ft 364kts
08-Jul-15 13:30 37.088203 -121.992201 136 23175ft 391kts
08-Jul-15 13:31 37.006908 -121.895351 136 25180ft 414kts
08-Jul-15 13:32 36.921684 -121.794153 136 27187ft 427kts
08-Jul-15 13:33 36.834595 -121.691093 136 29192ft 433kts
08-Jul-15 13:34 36.746910 -121.587613 137 30909ft 441kts
08-Jul-15 13:35 36.655066 -121.479677 138 30952ft 457kts
08-Jul-15 13:36 36.562563 -121.371025 138 30950ft 456kts
08-Jul-15 13:37 36.469905 -121.262969 139 30938ft 458kts
08-Jul-15 13:38 36.376397 -121.154506 140 30930ft 459kts
08-Jul-15 13:39 36.277570 -121.053368 144 30918ft 460kts
08-Jul-15 13:40 36.178454 -120.952793 144 30907ft 462kts
08-Jul-15 13:41 36.078962 -120.851387 144 30901ft 463kts
08-Jul-15 13:42 35.978971 -120.749510 145 30901ft 467kts
08-Jul-15 13:43 35.877846 -120.646803 146 30905ft 471kts
08-Jul-15 13:44 35.776201 -120.544322 146 30909ft 471kts
08-Jul-15 13:45 35.674500 -120.442201 146 30909ft 471kts
08-Jul-15 13:46 35.572599 -120.340577 146 30917ft 471kts
08-Jul-15 13:47 35.470947 -120.239523 146 30926ft 471kts
08-Jul-15 13:48 35.368961 -120.138049 146 30931ft 471kts
08-Jul-15 13:49 35.266665 -120.036435 147 30937ft 473kts
08-Jul-15 13:50 35.164499 -119.935775 147 30949ft 470kts
08-Jul-15 13:51 35.063132 -119.834068 144 30935ft 473kts
08-Jul-15 13:52 34.963465 -119.728539 145 30267ft 474kts
08-Jul-15 13:53 34.863846 -119.623541 144 28575ft 474kts
08-Jul-15 13:54 34.763751 -119.517902 144 26885ft 475kts
08-Jul-15 13:55 34.663390 -119.412416 143 25382ft 473kts
08-Jul-15 13:56 34.565080 -119.309536 143 24075ft 461kts
08-Jul-15 13:57 34.467527 -119.207797 143 23981ft 462kts
08-Jul-15 13:58 34.369512 -119.105910 144 23961ft 463kts
08-Jul-15 13:59 34.271372 -119.004129 144 23114ft 452kts
08-Jul-15 14:00 34.179508 -118.909077 144 21171ft 416kts
08-Jul-15 14:01 34.096316 -118.823520 144 19162ft 372kts
08-Jul-15 14:02 34.015764 -118.756170 163 16916ft 339kts
08-Jul-15 14:03 33.934793 -118.726486 166 14483ft 330kts
08-Jul-15 14:04 33.851080 -118.696063 165 14067ft 304kts
08-Jul-15 14:05 33.769442 -118.666392 165 14007ft 307kts
08-Jul-15 14:06 33.698869 -118.617196 111 13996ft 306kts
08-Jul-15 14:07 33.682716 -118.519136 100 14018ft 299kts
08-Jul-15 14:08 33.668294 -118.420477 102 14002ft 299kts
08-Jul-15 14:09 33.652963 -118.321231 102 12107ft 297kts
08-Jul-15 14:10 33.636846 -118.224962 102 9917ft 293kts
08-Jul-15 14:11 33.644935 -118.134961 39 7606ft 286kts
08-Jul-15 14:12 33.710547 -118.082133 32 5284ft 276kts
08-Jul-15 14:13 33.766277 -118.032683 42 4460ft 236kts
08-Jul-15 14:14 33.815490 -117.977730 42 3053ft 238kts
08-Jul-15 14:15 33.859117 -117.924629 52 2925ft 213kts
08-Jul-15 14:16 33.896900 -117.867971 37 2963ft 216kts
08-Jul-15 14:17 33.935569 -117.811525 61 2848ft 214kts
08-Jul-15 14:18 33.920793 -117.747842 171 3190ft 210kts
08-Jul-15 14:19 33.865018 -117.763463 184 2997ft 206kts
08-Jul-15 14:20 33.810464 -117.783766 205 2353ft 193kts
08-Jul-15 14:21 33.764857 -117.812268 208 1889ft 183kts
08-Jul-15 14:22 33.721754 -117.839635 208 956ft 163kts
08-Jul-15 14:23 33.685681 -117.862546 209 153ft 142kts
08-Jul-15 14:24 33.670835 -117.871951 206 64ft 12kts
08-Jul-15 14:25 33.673418 -117.866912 29 64ft 33kts
08-Jul-15 14:26 33.675842 -117.865267 75 64ft 6kts

Navigation Log

Ident Type
Flight plan parsing failed, navigation log unavailable